Time;durP1;ratioP1;P1;durP2;ratioP2;P2;SDS_P1;SDS_P2;PMS_P1;PMS_P2;Temp;Humidity;BMP_temperature;BMP_pressure;BME280_temperature;BME280_humidity;BME280_pressure;Samples;Min_cycle;Max_cycle;Signal;HPM_P1;HPM_P2
2021/12/11 00:01:17;;;;;;;63.28;27.95;;;;;;;-0.69;92.53;100118.13;5087051;28;20044;-58
2021/12/11 00:03:49;;;;;;;62.00;26.63;;;;;;;-0.71;92.40;100116.38;5087617;28;20048;-57
2021/12/11 00:06:20;;;;;;;69.75;28.90;;;;;;;-0.71;92.40;100124.00;5090062;28;20054;-57
2021/12/11 00:08:51;;;;;;;66.28;29.67;;;;;;;-0.72;92.34;100120.59;5087109;28;20058;-57
2021/12/11 00:11:24;;;;;;;74.93;32.05;;;;;;;-0.69;92.65;100123.22;5088258;28;20056;-57
2021/12/11 00:13:54;;;;;;;75.80;32.63;;;;;;;-0.70;92.71;100125.72;5086591;28;20047;-57
2021/12/11 00:16:22;;;;;;;69.78;31.50;;;;;;;-0.69;92.87;100133.41;5087740;28;20051;-57
2021/12/11 00:18:53;;;;;;;61.95;28.55;;;;;;;-0.73;92.68;100135.81;5088634;28;20599;-57
2021/12/11 00:21:20;;;;;;;58.70;26.25;;;;;;;-0.72;92.56;100128.22;5087895;28;20472;-57
2021/12/11 00:23:52;;;;;;;70.45;30.00;;;;;;;-0.72;92.30;100128.22;5088389;28;20055;-56
2021/12/11 00:26:27;;;;;;;58.55;27.02;;;;;;;-0.75;92.33;100128.16;5096554;28;20047;-56
2021/12/11 00:28:54;;;;;;;64.35;27.02;;;;;;;-0.76;92.29;100141.69;5089073;28;20040;-56
2021/12/11 00:31:23;;;;;;;70.38;29.55;;;;;;;-0.77;92.15;100150.16;5084392;28;20059;-57
2021/12/11 00:33:52;;;;;;;62.17;26.08;;;;;;;-0.73;92.34;100151.97;5088252;28;20047;-56
2021/12/11 00:36:22;;;;;;;59.63;25.60;;;;;;;-0.73;92.38;100157.06;5090299;28;20052;-56
2021/12/11 00:38:50;;;;;;;61.28;27.13;;;;;;;-0.72;92.07;100158.78;5092452;28;20082;-56
2021/12/11 00:41:24;;;;;;;57.03;27.30;;;;;;;-0.71;92.41;100154.56;5086017;28;20052;-56
2021/12/11 00:44:00;;;;;;;63.55;26.40;;;;;;;-0.75;92.17;100163.78;5088498;28;20040;-55
2021/12/11 00:46:28;;;;;;;57.63;26.83;;;;;;;-0.78;92.47;100168.78;5087633;28;20087;-55
2021/12/11 00:48:55;;;;;;;64.63;29.25;;;;;;;-0.78;92.44;100173.88;5088670;28;20493;-57
2021/12/11 00:51:24;;;;;;;63.95;28.08;;;;;;;-0.76;92.66;100174.78;5085632;28;20109;-56
2021/12/11 00:53:53;;;;;;;61.83;26.95;;;;;;;-0.73;92.45;100190.13;5084785;28;20039;-58
2021/12/11 00:56:24;;;;;;;61.85;27.48;;;;;;;-0.71;92.23;100190.19;5085142;28;20055;-57
2021/12/11 00:58:55;;;;;;;65.85;28.85;;;;;;;-0.73;92.43;100187.59;5085647;28;20089;-57
2021/12/11 01:01:26;;;;;;;66.25;27.65;;;;;;;-0.71;92.25;100198.69;5087225;28;20126;-56
2021/12/11 01:03:59;;;;;;;62.55;26.45;;;;;;;-0.72;92.04;100199.50;5087863;28;21040;-57
2021/12/11 01:06:31;;;;;;;53.80;24.52;;;;;;;-0.71;92.26;100200.38;5085368;28;20146;-57
2021/12/11 01:09:02;;;;;;;55.35;24.80;;;;;;;-0.71;92.05;100205.44;5086391;28;20094;-57
2021/12/11 01:11:32;;;;;;;59.95;26.85;;;;;;;-0.72;92.06;100211.38;5086841;28;20051;-57
2021/12/11 01:14:11;;;;;;;57.65;25.13;;;;;;;-0.72;91.84;100213.91;5085632;28;20052;-58
2021/12/11 01:16:40;;;;;;;48.22;21.20;;;;;;;-0.80;91.70;100211.16;5086824;28;20415;-58
2021/12/11 01:19:16;;;;;;;47.40;21.15;;;;;;;-0.80;92.14;100218.78;5097504;28;20047;-58
2021/12/11 01:21:55;;;;;;;49.90;21.00;;;;;;;-0.81;91.71;100223.81;5084810;28;20039;-57
2021/12/11 01:24:30;;;;;;;48.95;21.80;;;;;;;-0.81;91.88;100219.59;5087247;28;20058;-58
2021/12/11 01:26:59;;;;;;;50.90;21.77;;;;;;;-0.82;91.57;100222.09;5095618;28;20040;-58
2021/12/11 01:29:31;;;;;;;51.60;23.80;;;;;;;-0.81;91.74;100229.78;5088673;28;20408;-57
2021/12/11 01:31:58;;;;;;;52.28;22.08;;;;;;;-0.81;91.93;100232.31;5086809;28;20109;-57
2021/12/11 01:34:27;;;;;;;52.40;23.45;;;;;;;-0.81;91.83;100234.88;5087861;28;20055;-55
2021/12/11 01:36:55;;;;;;;47.95;21.85;;;;;;;-0.82;91.97;100228.06;5094203;28;20047;-58
2021/12/11 01:39:26;;;;;;;54.45;23.15;;;;;;;-0.80;91.85;100225.56;5085747;28;20485;-57
2021/12/11 01:41:56;;;;;;;50.75;21.42;;;;;;;-0.81;91.60;100227.25;5083960;28;20110;-56
2021/12/11 01:44:29;;;;;;;46.90;20.65;;;;;;;-0.79;91.75;100222.19;5085895;28;20040;-58
2021/12/11 01:47:06;;;;;;;49.22;22.38;;;;;;;-0.79;91.68;100223.06;5084357;28;20134;-57
2021/12/11 01:49:34;;;;;;;50.90;22.17;;;;;;;-0.78;91.60;100229.88;5085293;28;20048;-57
2021/12/11 01:52:09;;;;;;;49.30;20.25;;;;;;;-0.78;91.66;100234.09;5086290;28;20047;-56
2021/12/11 01:54:40;;;;;;;49.08;23.27;;;;;;;-0.81;91.78;100239.97;5087813;28;20047;-56
2021/12/11 01:57:13;;;;;;;47.60;22.38;;;;;;;-0.86;91.52;100233.88;5084418;28;20047;-56
2021/12/11 01:59:46;;;;;;;48.63;20.58;;;;;;;-0.91;91.63;100226.94;5088660;28;20040;-57
2021/12/11 02:02:19;;;;;;;41.95;19.98;;;;;;;-1.00;91.54;100232.59;5086598;28;20432;-56
2021/12/11 02:04:50;;;;;;;45.72;21.75;;;;;;;-1.06;91.53;100228.16;5085448;28;20048;-56
2021/12/11 02:07:20;;;;;;;42.47;19.02;;;;;;;-1.12;91.77;100232.22;5087499;28;20120;-56
2021/12/11 02:09:55;;;;;;;47.75;21.10;;;;;;;-1.15;91.79;100237.22;5085926;28;20064;-55
2021/12/11 02:12:29;;;;;;;52.15;23.02;;;;;;;-1.19;92.22;100245.56;5083667;28;20533;-57
2021/12/11 02:14:56;;;;;;;52.78;23.60;;;;;;;-1.21;92.49;100247.19;5087017;28;20050;-55
2021/12/11 02:17:29;;;;;;;50.15;23.65;;;;;;;-1.23;92.81;100249.69;5085755;28;20093;-55
2021/12/11 02:20:00;;;;;;;52.63;24.83;;;;;;;-1.24;92.69;100247.09;5083402;28;20369;-56
2021/12/11 02:22:37;;;;;;;55.58;23.85;;;;;;;-1.24;93.18;100254.72;5084315;28;21951;-56
2021/12/11 02:25:09;;;;;;;52.92;23.17;;;;;;;-1.28;93.17;100252.09;5085256;28;20071;-56
2021/12/11 02:27:42;;;;;;;50.58;22.13;;;;;;;-1.27;92.91;100253.81;5094192;28;20036;-58
2021/12/11 02:30:18;;;;;;;59.05;25.88;;;;;;;-1.25;93.09;100245.38;5088500;28;20044;-56
2021/12/11 02:32:47;;;;;;;;;;;;;;;-1.21;93.12;100252.28;5086174;28;20081;-57
2021/12/11 02:35:23;;;;;;;58.20;24.23;;;;;;;-1.20;92.95;100259.97;5085038;28;19927;-58
2021/12/11 02:37:57;;;;;;;55.08;24.08;;;;;;;-1.24;93.00;100264.91;5089262;28;20051;-55
2021/12/11 02:40:29;;;;;;;53.10;25.15;;;;;;;-1.29;93.00;100260.53;5088803;28;20085;-56
2021/12/11 02:43:01;;;;;;;63.13;25.10;;;;;;;-1.35;93.09;100262.88;5091437;28;20109;-55
2021/12/11 02:45:35;;;;;;;61.33;25.92;;;;;;;-1.38;93.36;100255.16;5086648;28;20040;-56
2021/12/11 02:48:07;;;;;;;71.40;30.20;;;;;;;-1.37;93.41;100256.03;5084048;28;20396;-57
2021/12/11 02:50:39;;;;;;;107.22;48.22;;;;;;;-1.37;93.59;100261.97;5086814;28;20417;-57
2021/12/11 02:53:13;;;;;;;111.47;52.58;;;;;;;-1.38;93.70;100260.25;5087387;28;20465;-57
2021/12/11 02:55:47;;;;;;;127.65;60.95;;;;;;;-1.37;93.93;100251.81;5086561;28;20089;-57
2021/12/11 02:58:18;;;;;;;101.82;50.80;;;;;;;-1.37;94.16;100261.97;5087110;28;20063;-55
2021/12/11 03:00:49;;;;;;;74.57;34.35;;;;;;;-1.36;94.01;100266.25;5088312;28;20052;-57
2021/12/11 03:03:24;;;;;;;69.20;34.35;;;;;;;-1.36;94.05;100263.69;5088754;28;20109;-58
2021/12/11 03:05:59;;;;;;;63.70;31.08;;;;;;;-1.31;93.82;100266.38;5086592;28;20048;-57
2021/12/11 03:08:28;;;;;;;84.15;37.78;;;;;;;-1.32;93.89;100275.69;5088082;28;20043;-55
2021/12/11 03:11:00;;;;;;;77.57;35.63;;;;;;;-1.32;93.82;100275.69;5088826;28;20802;-57
2021/12/11 03:13:29;;;;;;;66.35;30.58;;;;;;;-1.36;93.87;100278.97;5084668;28;20056;-56
2021/12/11 03:15:56;;;;;;;65.82;30.10;;;;;;;-1.38;94.11;100290.75;5086328;28;20086;-56
2021/12/11 03:18:24;;;;;;;102.45;47.75;;;;;;;-1.40;93.97;100292.38;5084817;28;20055;-56
2021/12/11 03:20:52;;;;;;;62.33;27.10;;;;;;;-1.40;93.88;100294.94;5082721;28;20901;-56
2021/12/11 03:23:20;;;;;;;69.07;32.42;;;;;;;-1.40;93.78;100294.94;5084469;28;20083;-56
2021/12/11 03:25:49;;;;;;;74.15;32.40;;;;;;;-1.39;94.17;100294.13;5085840;28;20151;-58
2021/12/11 03:28:19;;;;;;;67.70;29.92;;;;;;;-1.37;93.97;100292.50;5089756;28;20054;-57
2021/12/11 03:30:56;;;;;;;82.20;40.92;;;;;;;-1.37;93.96;100297.56;5090002;28;20552;-56
2021/12/11 03:33:25;;;;;;;74.60;34.53;;;;;;;-1.36;94.08;100301.84;5087323;28;20126;-58
2021/12/11 03:35:55;;;;;;;71.97;33.63;;;;;;;-1.32;93.65;100308.75;5092682;28;20083;-55
2021/12/11 03:38:24;;;;;;;205.65;79.20;;;;;;;-1.30;93.93;100309.66;5092441;28;20209;-57
2021/12/11 03:40:53;;;;;;;113.72;50.95;;;;;;;-1.31;93.64;100313.03;5086847;28;20056;-58
2021/12/11 03:43:23;;;;;;;70.15;30.83;;;;;;;-1.27;93.83;100325.03;5086826;28;20048;-57
2021/12/11 03:45:53;;;;;;;61.40;28.42;;;;;;;-1.24;93.88;100316.63;5087427;28;20043;-58
2021/12/11 03:48:26;;;;;;;71.20;30.60;;;;;;;-1.21;93.88;100324.34;5090290;28;20048;-60
2021/12/11 03:50:55;;;;;;;73.38;33.33;;;;;;;-1.21;93.85;100315.84;5087965;28;20043;-58
2021/12/11 03:53:23;;;;;;;81.22;34.55;;;;;;;-1.21;93.71;100323.50;5088219;28;20051;-55
2021/12/11 03:55:56;;;;;;;72.10;33.33;;;;;;;-1.22;93.61;100329.41;5088286;28;20048;-57
2021/12/11 03:58:24;;;;;;;74.97;31.27;;;;;;;-1.21;93.77;100329.44;5088732;28;20047;-57
2021/12/11 04:00:55;;;;;;;65.45;27.27;;;;;;;-1.20;93.59;100340.47;5088889;28;20060;-56
2021/12/11 04:03:28;;;;;;;68.90;30.58;;;;;;;-1.22;93.40;100337.03;5086570;28;20060;-57
2021/12/11 04:05:56;;;;;;;73.22;33.33;;;;;;;-1.29;93.40;100341.91;5088174;28;20040;-57
2021/12/11 04:08:28;;;;;;;74.90;34.60;;;;;;;-1.27;93.53;100342.81;5087105;28;20054;-57
2021/12/11 04:10:57;;;;;;;70.55;31.35;;;;;;;-1.25;93.42;100342.00;5085582;28;20051;-58
2021/12/11 04:13:25;;;;;;;63.38;28.02;;;;;;;-1.29;93.75;100339.38;5088170;28;20048;-57
2021/12/11 04:15:54;;;;;;;67.57;27.77;;;;;;;-1.29;93.35;100347.00;5084183;28;20052;-56
2021/12/11 04:18:22;;;;;;;64.38;26.90;;;;;;;-1.31;93.16;100343.53;5086364;28;20499;-56
2021/12/11 04:20:50;;;;;;;66.45;29.73;;;;;;;-1.31;93.18;100348.63;5086288;28;20055;-57
2021/12/11 04:23:19;;;;;;;65.22;29.63;;;;;;;-1.35;93.21;100346.78;5084537;28;20485;-56
2021/12/11 04:25:49;;;;;;;62.42;25.88;;;;;;;-1.38;93.13;100349.25;5083438;28;20050;-57
2021/12/11 04:28:20;;;;;;;67.18;26.90;;;;;;;-1.44;93.31;100356.66;5085315;28;20048;-59
2021/12/11 04:30:50;;;;;;;61.40;27.77;;;;;;;-1.47;93.28;100354.03;5085124;28;20605;-58
2021/12/11 04:33:17;;;;;;;61.25;26.42;;;;;;;-1.54;93.27;100349.53;5086614;28;20048;-57
2021/12/11 04:35:44;;;;;;;123.75;52.08;;;;;;;-1.56;93.54;100356.25;5084444;28;20062;-57
2021/12/11 04:38:15;;;;;;;63.70;29.55;;;;;;;-1.61;93.76;100348.44;5088624;28;20055;-57
2021/12/11 04:40:46;;;;;;;87.70;39.78;;;;;;;-1.67;93.50;100352.44;5087422;28;20052;-58
2021/12/11 04:43:16;;;;;;;75.18;34.45;;;;;;;-1.66;93.86;100352.50;5093229;28;20039;-57
2021/12/11 04:45:48;;;;;;;80.55;32.00;;;;;;;-1.65;93.74;100356.78;5087180;28;20448;-56
2021/12/11 04:48:25;;;;;;;81.82;35.38;;;;;;;-1.66;93.80;100355.03;5086701;28;20048;-57
2021/12/11 04:50:59;;;;;;;93.10;38.67;;;;;;;-1.70;93.84;100368.47;5087486;28;20093;-57
2021/12/11 04:53:41;;;;;;;72.38;34.88;;;;;;;-1.75;93.39;100371.66;5086685;28;20063;-57
2021/12/11 04:59:19;;;;;;;72.10;31.20;;;;;;;-1.89;93.89;100375.38;5082000;28;20055;-56
2021/12/11 05:01:57;;;;;;;58.83;23.63;;;;;;;-1.95;94.53;100374.34;5086030;28;20044;-58
2021/12/11 05:04:43;;;;;;;63.92;29.60;;;;;;;-1.99;94.39;100375.06;5086328;28;20058;-58
2021/12/11 05:07:23;;;;;;;68.47;27.92;;;;;;;-2.00;94.78;100380.94;5085644;28;20048;-58
2021/12/11 05:09:59;;;;;;;64.25;26.80;;;;;;;-2.00;94.48;100388.56;5086191;28;20097;-56
2021/12/11 05:12:34;;;;;;;67.30;27.85;;;;;;;-1.96;94.42;100389.53;5084417;28;20060;-58
2021/12/11 05:15:02;;;;;;;70.53;27.65;;;;;;;-1.93;94.70;100400.69;5087393;28;20079;-55
2021/12/11 05:17:31;;;;;;;65.47;28.27;;;;;;;-1.92;94.92;100386.31;5088377;28;20059;-57
2021/12/11 05:19:58;;;;;;;69.55;29.02;;;;;;;-1.92;94.61;100392.25;5084360;28;20055;-58
2021/12/11 05:22:26;;;;;;;84.00;29.80;;;;;;;-1.88;94.88;100397.44;5085079;28;20051;-59
2021/12/11 05:24:56;;;;;;;74.50;28.10;;;;;;;-1.88;94.93;100399.97;5084249;28;21983;-57
2021/12/11 05:27:24;;;;;;;60.58;23.73;;;;;;;-1.93;95.33;100405.75;5086392;28;20059;-56
2021/12/11 05:29:52;;;;;;;79.55;31.10;;;;;;;-1.97;95.14;100414.09;5090921;28;20451;-57
2021/12/11 05:32:21;;;;;;;75.38;27.65;;;;;;;-2.07;94.99;100406.94;5082902;28;20953;-57
2021/12/11 05:34:51;;;;;;;64.35;25.63;;;;;;;-2.01;94.90;100422.41;5087990;28;20052;-57
2021/12/11 05:37:19;;;;;;;68.90;24.05;;;;;;;-2.00;95.24;100429.22;5085651;28;20096;-55
2021/12/11 05:39:47;;;;;;;57.15;23.85;;;;;;;-1.98;94.71;100437.75;5086258;28;20052;-58
2021/12/11 05:42:14;;;;;;;67.70;26.42;;;;;;;-1.99;95.01;100435.16;5084704;28;20056;-56
2021/12/11 05:44:42;;;;;;;59.90;23.48;;;;;;;-2.00;95.18;100439.38;5084188;28;20408;-56
2021/12/11 05:47:10;;;;;;;55.88;22.83;;;;;;;-1.97;94.99;100439.50;5086017;28;20044;-56
2021/12/11 05:49:40;;;;;;;56.42;23.92;;;;;;;-1.97;94.97;100454.72;5085413;28;20040;-54
2021/12/11 05:52:12;;;;;;;54.03;24.33;;;;;;;-1.97;95.02;100449.66;5087291;28;20051;-56
2021/12/11 05:54:43;;;;;;;60.08;23.85;;;;;;;-1.98;95.23;100447.91;5089486;28;20056;-58
2021/12/11 05:57:13;;;;;;;54.60;22.88;;;;;;;-1.99;94.80;100441.09;5085789;28;20076;-55
2021/12/11 05:59:44;;;;;;;54.97;22.23;;;;;;;-1.99;95.00;100450.41;5084529;28;20504;-57
2021/12/11 06:02:15;;;;;;;58.55;22.58;;;;;;;-1.97;95.10;100452.19;5088971;28;20074;-56
2021/12/11 06:04:44;;;;;;;63.42;25.17;;;;;;;-1.96;94.92;100456.47;5087338;28;20168;-54
2021/12/11 06:07:14;;;;;;;56.42;23.10;;;;;;;-1.94;95.18;100465.00;5087619;28;20044;-57
2021/12/11 06:09:45;;;;;;;67.85;27.52;;;;;;;-1.91;95.20;100460.03;5084897;28;20056;-56
2021/12/11 06:12:15;;;;;;;76.53;29.15;;;;;;;-1.87;95.11;100467.78;5084667;28;20051;-55
2021/12/11 06:14:44;;;;;;;59.42;25.60;;;;;;;-1.84;95.21;100470.44;5085629;28;20119;-56
2021/12/11 06:17:15;;;;;;;71.13;30.83;;;;;;;-1.82;95.00;100474.75;5084366;28;20106;-57
2021/12/11 06:19:50;;;;;;;67.78;28.08;;;;;;;-1.80;95.01;100470.59;5082477;28;20054;-58
2021/12/11 06:22:19;;;;;;;67.18;26.15;;;;;;;-1.77;95.04;100480.00;5081927;28;20056;-55
2021/12/11 06:24:47;;;;;;;75.00;27.50;;;;;;;-1.78;95.28;100476.59;5086951;28;20048;-57
2021/12/11 06:27:14;;;;;;;61.08;23.30;;;;;;;-1.82;94.89;100476.44;5083997;28;20056;-56
2021/12/11 06:29:42;;;;;;;61.80;23.60;;;;;;;-1.87;94.88;100486.41;5083159;28;20100;-56
2021/12/11 06:32:09;;;;;;;70.82;24.42;;;;;;;-1.88;95.19;100484.69;5085220;28;20135;-56
2021/12/11 06:34:37;;;;;;;74.63;25.77;;;;;;;-1.87;95.32;100488.97;5085559;28;20048;-57
2021/12/11 06:37:05;;;;;;;66.75;24.38;;;;;;;-1.89;95.03;100488.03;5092979;28;20057;-56
2021/12/11 06:39:34;;;;;;;73.78;25.80;;;;;;;-1.93;95.27;100486.19;5085720;28;20075;-57
2021/12/11 06:42:04;;;;;;;80.57;28.80;;;;;;;-1.96;95.00;100499.66;5086728;28;20048;-57
2021/12/11 06:44:31;;;;;;;75.53;30.77;;;;;;;-1.97;95.29;100490.28;5090749;28;20059;-56
2021/12/11 06:47:00;;;;;;;61.47;23.30;;;;;;;-1.95;95.58;100503.06;5093696;28;20036;-57
2021/12/11 06:49:29;;;;;;;67.30;24.40;;;;;;;-1.99;95.40;100507.16;5088498;28;20047;-58
2021/12/11 06:51:56;;;;;;;67.47;24.70;;;;;;;-1.98;95.33;100513.97;5085001;28;20032;-58
2021/12/11 06:54:25;;;;;;;71.10;26.38;;;;;;;-1.96;95.33;100512.34;5089847;28;20048;-55
2021/12/11 06:56:54;;;;;;;74.18;26.63;;;;;;;-1.98;95.79;100521.59;5087442;28;20051;-56
2021/12/11 06:59:22;;;;;;;74.53;29.08;;;;;;;-1.96;95.53;100535.22;5086703;28;20664;-57
2021/12/11 07:01:50;;;;;;;68.53;25.13;;;;;;;-1.96;95.47;100541.97;5094133;28;20044;-55
2021/12/11 07:04:18;;;;;;;76.07;27.75;;;;;;;-1.93;95.79;100552.25;5089917;28;20055;-56
2021/12/11 07:06:47;;;;;;;71.18;25.60;;;;;;;-1.93;95.44;100553.09;5093376;28;20400;-56
2021/12/11 07:09:16;;;;;;;67.07;25.10;;;;;;;-1.97;95.33;100555.47;5094040;28;20040;-57
2021/12/11 07:11:44;;;;;;;66.82;23.90;;;;;;;-2.02;95.34;100562.06;5091255;28;20052;-54
2021/12/11 07:14:14;;;;;;;69.65;23.40;;;;;;;-2.04;95.67;100566.22;5093375;28;20662;-54
2021/12/11 07:16:44;;;;;;;73.07;23.88;;;;;;;-2.05;95.63;100583.13;5096555;28;20464;-55
2021/12/11 07:19:11;;;;;;;72.68;25.25;;;;;;;-2.07;95.65;100584.72;5090515;28;20113;-57
2021/12/11 07:21:39;;;;;;;70.28;24.13;;;;;;;-2.13;96.00;100589.53;5090768;28;20649;-56
2021/12/11 07:24:11;;;;;;;72.60;25.52;;;;;;;-2.15;95.79;100591.16;5082715;28;20071;-56
2021/12/11 07:26:38;;;;;;;82.18;27.92;;;;;;;-2.15;95.87;100596.22;5086885;28;20044;-56
2021/12/11 07:29:10;;;;;;;76.57;26.83;;;;;;;-2.16;96.25;100594.50;5086880;28;20044;-55
2021/12/11 07:31:40;;;;;;;78.25;27.63;;;;;;;-2.15;96.61;100595.38;5085972;28;20131;-58
2021/12/11 07:34:08;;;;;;;79.07;27.70;;;;;;;-2.16;96.79;100598.72;5086481;28;20605;-57
2021/12/11 07:36:35;;;;;;;88.05;29.80;;;;;;;-2.15;96.29;100596.22;5090922;28;20071;-56
2021/12/11 07:39:07;;;;;;;86.78;30.08;;;;;;;-2.14;96.83;100607.25;5094638;28;20063;-57
2021/12/11 07:41:35;;;;;;;87.03;29.13;;;;;;;-2.12;96.53;100606.50;5093529;28;20076;-56
2021/12/11 07:44:02;;;;;;;79.50;28.10;;;;;;;-2.09;96.70;100605.75;5093433;28;20051;-56
2021/12/11 07:46:31;;;;;;;75.93;28.42;;;;;;;-2.04;97.15;100617.88;5091802;28;20105;-56
2021/12/11 07:49:00;;;;;;;73.90;26.83;;;;;;;-2.00;97.17;100619.72;5088064;28;20052;-57
2021/12/11 07:51:30;;;;;;;63.50;23.13;;;;;;;-1.98;97.14;100619.78;5085356;28;20058;-57
2021/12/11 07:53:57;;;;;;;71.38;25.15;;;;;;;-2.00;96.77;100632.44;5093756;28;20073;-57
2021/12/11 07:56:25;;;;;;;72.38;24.05;;;;;;;-2.00;96.37;100632.44;5091318;28;20048;-55
2021/12/11 07:58:55;;;;;;;66.50;23.08;;;;;;;-2.01;96.43;100632.38;5087271;28;20060;-55
2021/12/11 08:01:23;;;;;;;73.53;24.58;;;;;;;-2.06;96.65;100627.09;5089413;28;20374;-58
2021/12/11 08:03:50;;;;;;;71.53;24.50;;;;;;;-2.09;96.35;100637.09;5090408;28;20062;-56
2021/12/11 08:06:19;;;;;;;77.43;24.45;;;;;;;-2.08;96.45;100645.59;5089106;28;20465;-53
2021/12/11 08:08:47;;;;;;;82.38;26.38;;;;;;;-2.08;96.95;100649.03;5095071;28;20052;-57
2021/12/11 08:11:17;;;;;;;75.95;25.35;;;;;;;-2.08;96.63;100651.56;5091168;28;20055;-57
2021/12/11 08:13:45;;;;;;;76.25;23.98;;;;;;;-2.05;96.72;100654.25;5087956;28;20048;-57
2021/12/11 08:16:17;;;;;;;89.22;27.00;;;;;;;-2.02;96.76;100659.44;5087128;28;20085;-57
2021/12/11 08:18:44;;;;;;;75.47;27.02;;;;;;;-1.99;96.64;100664.66;5085640;28;20143;-57
2021/12/11 08:21:12;;;;;;;77.80;27.13;;;;;;;-1.95;96.76;100666.50;5088056;28;20052;-58
2021/12/11 08:23:44;;;;;;;95.07;29.88;;;;;;;-1.94;96.56;100668.25;5089344;28;20048;-58
2021/12/11 08:26:14;;;;;;;89.07;26.45;;;;;;;-1.95;96.88;100671.59;5092214;28;20051;-55
2021/12/11 08:28:41;;;;;;;77.90;26.92;;;;;;;-1.94;96.92;100678.41;5104302;28;20051;-56
2021/12/11 08:31:09;;;;;;;90.38;30.33;;;;;;;-1.89;96.83;100675.19;5088601;28;20044;-57
2021/12/11 08:33:36;;;;;;;87.35;27.20;;;;;;;-1.84;96.84;100678.78;5097245;28;20071;-57
2021/12/11 08:36:03;;;;;;;81.50;25.52;;;;;;;-1.83;96.89;100670.34;5087475;28;20072;-54
2021/12/11 08:38:31;;;;;;;111.20;27.83;;;;;;;-1.87;96.72;100678.66;5094605;28;20051;-57
2021/12/11 08:41:02;;;;;;;84.57;30.17;;;;;;;-1.86;96.84;100676.16;5089023;28;20067;-57
2021/12/11 08:43:30;;;;;;;88.90;30.45;;;;;;;-1.86;96.57;100690.53;5089735;28;20501;-54
2021/12/11 08:46:08;;;;;;;93.68;29.95;;;;;;;-1.88;97.01;100684.53;5090240;28;20044;-56
2021/12/11 08:48:37;;;;;;;90.60;28.27;;;;;;;-1.86;96.96;100685.47;5099600;28;20039;-55
2021/12/11 08:51:09;;;;;;;105.65;34.28;;;;;;;-1.82;96.89;100687.31;5101978;28;20050;-58
2021/12/11 08:53:37;;;;;;;100.43;35.03;;;;;;;-1.81;97.00;100681.44;5093793;28;20063;-54
2021/12/11 08:56:08;;;;;;;107.35;30.83;;;;;;;-1.79;96.59;100684.91;5092702;28;20495;-58
2021/12/11 08:58:37;;;;;;;103.10;28.55;;;;;;;-1.80;96.61;100676.41;5087748;28;20131;-56
2021/12/11 09:01:10;;;;;;;119.32;30.75;;;;;;;-1.80;96.60;100680.63;5094019;28;20059;-56
2021/12/11 09:03:41;;;;;;;103.78;28.67;;;;;;;-1.83;96.59;100676.28;5086226;28;20054;-57
2021/12/11 09:06:13;;;;;;;113.72;30.25;;;;;;;-1.87;96.54;100674.44;5085868;28;20411;-56
2021/12/11 09:08:44;;;;;;;104.25;28.58;;;;;;;-1.93;96.19;100687.75;5085377;28;20704;-55
2021/12/11 09:11:19;;;;;;;83.47;25.77;;;;;;;-1.95;96.72;100681.75;5087476;28;20048;-55
2021/12/11 09:13:50;;;;;;;104.55;30.38;;;;;;;-1.94;96.40;100686.03;5085856;28;20055;-56
2021/12/11 09:16:20;;;;;;;78.22;26.67;;;;;;;-1.91;96.57;100693.78;5085900;28;20140;-56
2021/12/11 09:18:53;;;;;;;92.53;28.42;;;;;;;-1.86;96.35;100693.09;5087001;28;20062;-56
2021/12/11 09:21:26;;;;;;;109.18;29.13;;;;;;;-1.87;96.24;100689.69;5086363;28;20056;-56
2021/12/11 09:24:03;;;;;;;115.38;33.08;;;;;;;-1.89;96.18;100695.50;5087653;28;20058;-57
2021/12/11 09:26:39;;;;;;;119.90;32.72;;;;;;;-1.92;95.81;100697.13;5089659;28;20458;-57
2021/12/11 09:29:18;;;;;;;95.88;27.70;;;;;;;-1.95;96.04;100691.03;5085911;28;20056;-58
2021/12/11 09:31:57;;;;;;;93.80;30.83;;;;;;;-1.93;96.12;100697.91;5084594;28;20059;-58
2021/12/11 09:34:28;;;;;;;90.15;28.23;;;;;;;-1.93;95.49;100695.38;5087512;28;20071;-56
2021/12/11 09:36:59;;;;;;;82.35;26.65;;;;;;;-1.95;95.63;100693.59;5085177;28;20039;-56
2021/12/11 09:39:32;;;;;;;83.88;27.25;;;;;;;-1.95;95.72;100702.06;5085551;28;20063;-55
2021/12/11 09:41:59;;;;;;;81.75;26.45;;;;;;;-1.96;95.60;100700.34;5087384;28;20051;-57
2021/12/11 09:44:33;;;;;;;119.53;29.60;;;;;;;-1.97;95.59;100703.69;5088411;28;20514;-55
2021/12/11 09:47:04;;;;;;;102.78;27.55;;;;;;;-1.97;96.10;100703.69;5083578;28;20047;-58
2021/12/11 09:49:35;;;;;;;117.53;29.23;;;;;;;-1.98;95.72;100704.50;5084549;28;20066;-55
2021/12/11 09:52:15;;;;;;;95.30;28.13;;;;;;;-2.03;96.30;100703.44;5086593;28;20054;-57
2021/12/11 09:54:44;;;;;;;98.28;29.38;;;;;;;-2.05;96.00;100704.16;5086021;28;20052;-55
2021/12/11 09:57:15;;;;;;;138.32;45.42;;;;;;;-2.03;96.30;100705.97;5086079;28;20039;-59
2021/12/11 09:59:45;;;;;;;137.15;41.53;;;;;;;-2.00;96.15;100705.22;5085623;28;20207;-57
2021/12/11 10:02:16;;;;;;;183.95;42.95;;;;;;;-1.98;96.00;100701.94;5084987;28;20633;-54
2021/12/11 10:04:52;;;;;;;175.60;49.85;;;;;;;-1.96;96.08;100699.47;5086031;28;20447;-57
2021/12/11 10:07:28;;;;;;;101.93;32.80;;;;;;;-1.93;96.16;100700.47;5086458;27;20048;-59
2021/12/11 10:10:02;;;;;;;107.32;36.85;;;;;;;-1.80;96.56;100693.34;5085581;28;20536;-59
2021/12/11 10:12:33;;;;;;;83.57;26.73;;;;;;;-1.67;96.25;100698.09;5084850;28;20044;-58
2021/12/11 10:15:07;;;;;;;93.47;27.20;;;;;;;-1.63;96.08;100689.78;5085852;28;20144;-57
2021/12/11 10:17:40;;;;;;;83.05;25.52;;;;;;;-1.62;95.49;100694.94;5085234;28;20048;-59
2021/12/11 10:20:12;;;;;;;68.63;25.15;;;;;;;-1.58;95.40;100689.16;5085199;28;20059;-50
2021/12/11 10:22:41;;;;;;;69.80;25.63;;;;;;;-1.42;95.90;100689.78;5086442;28;20060;-58
2021/12/11 10:25:13;;;;;;;70.00;27.17;;;;;;;-1.37;94.83;100694.25;5087037;28;20048;-58
2021/12/11 10:27:40;;;;;;;69.38;25.33;;;;;;;-1.33;94.49;100701.19;5085396;28;20055;-59
2021/12/11 10:30:12;;;;;;;68.68;23.65;;;;;;;-1.40;93.57;100706.84;5085554;28;20055;-59
2021/12/11 10:32:40;;;;;;;69.47;25.45;;;;;;;-1.48;93.33;100710.75;5084955;28;20052;-57
2021/12/11 10:35:11;;;;;;;68.35;25.20;;;;;;;-1.51;93.15;100715.72;5089303;28;20128;-59
2021/12/11 10:37:39;;;;;;;80.85;27.63;;;;;;;-1.56;93.18;100717.22;5090145;28;20078;-60
2021/12/11 10:40:12;;;;;;;74.68;24.95;;;;;;;-1.60;93.24;100715.31;5089534;28;20161;-59
2021/12/11 10:42:40;;;;;;;81.65;24.17;;;;;;;-1.52;93.61;100716.53;5088708;28;20067;-59
2021/12/11 10:45:12;;;;;;;73.07;24.25;;;;;;;-1.54;93.42;100715.59;5088554;28;20044;-59
2021/12/11 10:47:44;;;;;;;71.35;25.10;;;;;;;-1.44;93.69;100712.63;5087881;28;20056;-59
2021/12/11 10:50:18;;;;;;;68.85;24.67;;;;;;;-1.34;93.91;100719.78;5086221;28;20039;-59
2021/12/11 10:52:48;;;;;;;76.88;25.17;;;;;;;-1.39;93.13;100726.38;5087962;28;20044;-60
2021/12/11 10:55:18;;;;;;;74.43;26.38;;;;;;;-1.49;93.18;100733.56;5088057;28;20051;-59
2021/12/11 10:57:45;;;;;;;92.25;26.00;;;;;;;-1.52;93.07;100734.31;5088213;28;20097;-60
2021/12/11 11:00:20;;;;;;;101.30;30.25;;;;;;;-1.60;93.26;100735.66;5088330;28;20054;-60
2021/12/11 11:02:47;;;;;;;82.18;28.00;;;;;;;-1.66;93.81;100750.66;5089691;28;20578;-58
2021/12/11 11:05:18;;;;;;;82.32;28.45;;;;;;;-1.71;93.91;100752.16;5088199;28;20071;-59
2021/12/11 11:07:46;;;;;;;86.30;28.45;;;;;;;-1.74;94.39;100755.44;5086603;28;20051;-57
2021/12/11 11:10:18;;;;;;;92.78;29.02;;;;;;;-1.70;94.61;100748.81;5085372;28;20048;-56
2021/12/11 11:12:45;;;;;;;89.03;29.10;;;;;;;-1.70;94.39;100753.88;5087163;28;20415;-58
2021/12/11 11:15:20;;;;;;;92.65;30.75;;;;;;;-1.70;94.52;100751.34;5087238;28;20056;-56
2021/12/11 11:17:49;;;;;;;104.53;31.85;;;;;;;-1.69;94.82;100761.56;5087359;28;20055;-54
2021/12/11 11:20:21;;;;;;;106.10;30.23;;;;;;;-1.70;94.99;100758.97;5089239;28;20059;-56
2021/12/11 11:22:49;;;;;;;90.03;28.73;;;;;;;-1.73;94.89;100763.94;5088621;28;20051;-54
2021/12/11 11:25:21;;;;;;;99.68;33.22;;;;;;;-1.74;95.10;100767.28;5086814;28;20070;-54
2021/12/11 11:27:56;;;;;;;95.43;30.70;;;;;;;-1.73;95.69;100774.09;5086268;28;20043;-55